createdAt,value
2017-11-24T00:02:07.577Z,14.18
2017-11-24T00:04:34.581Z,14.65
2017-11-24T00:07:01.408Z,17.42
2017-11-24T00:09:28.238Z,18.60
2017-11-24T00:11:55.297Z,15.65
2017-11-24T00:14:22.100Z,14.43
2017-11-24T00:16:48.898Z,16.83
2017-11-24T00:19:15.685Z,16.48
2017-11-24T00:21:42.499Z,17.60
2017-11-24T00:24:09.568Z,14.50
2017-11-24T00:26:36.725Z,14.20
2017-11-24T00:29:03.605Z,15.27
2017-11-24T00:31:30.413Z,17.83
2017-11-24T00:33:57.286Z,18.70
2017-11-24T00:36:24.414Z,14.57
2017-11-24T00:38:51.560Z,15.68
2017-11-24T00:41:18.429Z,12.52
2017-11-24T00:43:45.305Z,13.55
2017-11-24T00:46:12.393Z,14.90
2017-11-24T00:48:39.237Z,14.35
2017-11-24T00:51:06.388Z,18.37
2017-11-24T00:53:33.237Z,11.38
2017-11-24T00:56:00.384Z,16.23
2017-11-24T00:58:27.229Z,15.80
2017-11-24T01:00:54.101Z,15.65
2017-11-24T01:03:20.990Z,15.13
2017-11-24T01:05:47.861Z,15.82
2017-11-24T01:08:15.118Z,17.20
2017-11-24T01:10:41.973Z,12.70
2017-11-24T01:13:09.094Z,14.63
2017-11-24T01:15:36.257Z,10.83
2017-11-24T01:18:03.076Z,11.43
2017-11-24T01:20:30.314Z,11.20
2017-11-24T01:22:57.174Z,13.88
2017-11-24T01:25:24.020Z,13.88
2017-11-24T01:27:50.836Z,13.48
2017-11-24T01:30:17.680Z,13.02
2017-11-24T01:32:44.881Z,11.37
2017-11-24T01:35:11.770Z,15.50
2017-11-24T01:37:38.892Z,12.10
2017-11-24T01:40:05.724Z,12.05
2017-11-24T01:42:32.598Z,13.20
2017-11-24T01:44:59.704Z,13.00
2017-11-24T01:47:26.612Z,17.35
2017-11-24T01:49:53.479Z,16.90
2017-11-24T01:52:20.652Z,15.20
2017-11-24T01:54:47.524Z,15.18
2017-11-24T01:57:14.734Z,13.85
2017-11-24T01:59:41.576Z,18.62
2017-11-24T02:02:08.490Z,13.18
2017-11-24T02:04:35.704Z,14.43
2017-11-24T02:07:02.937Z,16.67
2017-11-24T02:09:30.120Z,15.63
2017-11-24T02:11:57.237Z,14.13
2017-11-24T02:14:24.077Z,19.45
2017-11-24T02:16:51.233Z,15.05
2017-11-24T02:19:18.092Z,14.60
2017-11-24T02:21:45.326Z,14.20
2017-11-24T02:24:12.176Z,15.20
2017-11-24T02:26:39.292Z,14.80
2017-11-24T02:29:06.140Z,17.37
2017-11-24T02:31:33.005Z,13.52
2017-11-24T02:33:59.838Z,16.15
2017-11-24T02:36:26.753Z,14.15
2017-11-24T02:38:53.664Z,17.58
2017-11-24T02:41:20.545Z,16.90
2017-11-24T02:43:47.443Z,13.23
2017-11-24T02:46:14.576Z,15.57
2017-11-24T02:48:41.469Z,13.38
2017-11-24T02:51:08.569Z,16.45
2017-11-24T02:53:35.452Z,16.23
2017-11-24T02:56:02.665Z,13.98
2017-11-24T02:58:29.554Z,14.80
2017-11-24T03:00:56.757Z,17.02
2017-11-24T03:03:23.646Z,22.45
2017-11-24T03:05:50.496Z,17.45
2017-11-24T03:08:17.458Z,14.63
2017-11-24T03:10:44.306Z,14.80
2017-11-24T03:13:11.202Z,14.77
2017-11-24T03:15:38.333Z,16.08
2017-11-24T03:18:05.586Z,16.50
2017-11-24T03:20:32.465Z,17.20
2017-11-24T03:22:59.314Z,16.73
2017-11-24T03:25:26.187Z,18.10
2017-11-24T03:27:53.049Z,14.93
2017-11-24T03:30:19.940Z,15.32
2017-11-24T03:32:46.834Z,21.60
2017-11-24T03:35:13.715Z,16.42
2017-11-24T03:37:40.572Z,17.52
2017-11-24T03:40:07.397Z,17.67
2017-11-24T03:42:34.269Z,19.55
2017-11-24T03:45:01.116Z,17.87
2017-11-24T03:47:27.948Z,24.92
2017-11-24T03:49:54.813Z,20.40
2017-11-24T03:52:21.662Z,17.50
2017-11-24T03:54:48.740Z,20.10
2017-11-24T03:57:15.616Z,13.93
2017-11-24T03:59:42.469Z,14.20
2017-11-24T04:02:09.305Z,17.75
2017-11-24T04:04:36.164Z,22.85
2017-11-24T04:07:03.007Z,19.60
2017-11-24T04:09:29.874Z,17.87
2017-11-24T04:11:56.703Z,19.77
2017-11-24T04:14:23.530Z,18.58
2017-11-24T04:16:50.645Z,18.02
2017-11-24T04:19:17.453Z,19.90
2017-11-24T04:21:44.436Z,16.62
2017-11-24T04:24:11.345Z,17.67
2017-11-24T04:26:38.525Z,18.17
2017-11-24T04:29:05.678Z,18.75
2017-11-24T04:31:32.503Z,20.00
2017-11-24T04:33:59.320Z,24.55
2017-11-24T04:36:26.197Z,26.40
2017-11-24T04:38:53.060Z,19.40
2017-11-24T04:41:19.917Z,19.93
2017-11-24T04:43:46.772Z,18.07
2017-11-24T04:46:13.849Z,21.17
2017-11-24T04:48:40.932Z,19.63
2017-11-24T04:51:07.785Z,16.52
2017-11-24T04:53:34.641Z,16.40
2017-11-24T04:56:01.519Z,17.17
2017-11-24T04:58:28.608Z,17.73
2017-11-24T05:00:55.762Z,23.33
2017-11-24T05:03:22.628Z,21.15
2017-11-24T05:05:49.456Z,14.07
2017-11-24T05:08:16.326Z,19.52
2017-11-24T05:10:43.442Z,17.17
2017-11-24T05:13:10.588Z,18.98
2017-11-24T05:15:37.744Z,21.02
2017-11-24T05:18:04.605Z,25.83
2017-11-24T05:20:31.745Z,19.30
2017-11-24T05:22:58.989Z,18.33
2017-11-24T05:25:25.820Z,16.10
2017-11-24T05:27:52.674Z,16.52
2017-11-24T05:30:19.510Z,16.93
2017-11-24T05:32:46.385Z,13.37
2017-11-24T05:35:13.452Z,14.70
2017-11-24T05:37:40.310Z,16.40
2017-11-24T05:40:07.124Z,21.00
2017-11-24T05:42:33.969Z,20.37
2017-11-24T05:45:00.829Z,15.68
2017-11-24T05:47:27.665Z,18.12
2017-11-24T05:49:54.562Z,18.02
2017-11-24T05:52:21.408Z,16.58
2017-11-24T05:54:48.245Z,16.23
2017-11-24T05:57:15.106Z,16.02
2017-11-24T05:59:41.956Z,18.80
2017-11-24T06:02:08.817Z,17.57
2017-11-24T06:04:35.688Z,19.70
2017-11-24T06:07:02.508Z,15.55
2017-11-24T06:09:29.376Z,16.83
2017-11-24T06:11:56.200Z,18.75
2017-11-24T06:14:23.304Z,21.20
2017-11-24T06:16:50.351Z,16.73
2017-11-24T06:19:17.187Z,17.15
2017-11-24T06:21:44.052Z,20.27
2017-11-24T06:24:10.925Z,18.95
2017-11-24T06:26:37.797Z,16.35
2017-11-24T06:29:04.873Z,16.48
2017-11-24T06:31:31.750Z,18.33
2017-11-24T06:33:58.589Z,23.65
2017-11-24T06:36:25.718Z,26.95
2017-11-24T06:38:52.866Z,30.15
2017-11-24T06:41:19.704Z,30.02
2017-11-24T06:43:46.861Z,36.03
2017-11-24T06:46:13.755Z,19.58
2017-11-24T06:48:40.637Z,25.12
2017-11-24T06:51:07.798Z,22.60
2017-11-24T06:53:34.678Z,25.00
2017-11-24T06:56:01.789Z,23.85
2017-11-24T06:58:28.671Z,24.17
2017-11-24T07:00:55.497Z,21.47
2017-11-24T07:03:22.630Z,25.02
2017-11-24T07:05:49.489Z,20.23
2017-11-24T07:08:16.628Z,21.50
2017-11-24T07:10:43.525Z,22.55
2017-11-24T07:13:10.723Z,20.52
2017-11-24T07:15:37.641Z,17.70
2017-11-24T07:18:04.515Z,27.62
2017-11-24T07:20:31.429Z,17.80
2017-11-24T07:22:58.302Z,27.40
2017-11-24T07:25:25.133Z,20.67
2017-11-24T07:27:52.290Z,22.87
2017-11-24T07:30:19.166Z,20.83
2017-11-24T07:32:46.050Z,20.42
2017-11-24T07:35:12.871Z,21.52
2017-11-24T07:37:39.693Z,20.60
2017-11-24T07:40:06.814Z,19.62
2017-11-24T07:42:33.966Z,21.53
2017-11-24T07:45:01.111Z,21.73
2017-11-24T07:47:28.259Z,21.48
2017-11-24T07:49:55.084Z,29.58
2017-11-24T07:52:22.264Z,19.90
2017-11-24T07:54:49.093Z,26.10
2017-11-24T07:57:15.941Z,28.55
2017-11-24T07:59:42.792Z,26.58
2017-11-24T08:02:09.649Z,22.33
2017-11-24T08:04:36.785Z,29.17
2017-11-24T08:07:03.883Z,27.23
2017-11-24T08:09:30.786Z,21.45
2017-11-24T08:11:57.619Z,21.23
2017-11-24T08:14:24.470Z,19.40
2017-11-24T08:16:51.358Z,20.27
2017-11-24T08:19:18.220Z,21.83
2017-11-24T08:21:45.089Z,27.13
2017-11-24T08:24:11.937Z,23.37
2017-11-24T08:26:38.832Z,23.92
2017-11-24T08:29:05.710Z,21.10
2017-11-24T08:31:32.868Z,26.00
2017-11-24T08:33:59.705Z,22.98
2017-11-24T08:36:26.544Z,23.60
2017-11-24T08:38:53.710Z,25.10
2017-11-24T08:41:20.571Z,25.37
2017-11-24T08:43:47.411Z,24.25
2017-11-24T08:46:14.511Z,25.35
2017-11-24T08:48:41.336Z,24.48
2017-11-24T08:51:08.201Z,26.40
2017-11-24T08:53:35.062Z,25.52
2017-11-24T08:56:02.230Z,26.33
2017-11-24T08:58:29.294Z,29.50
2017-11-24T09:00:58.224Z,32.28
2017-11-24T09:03:25.397Z,34.15
2017-11-24T09:05:52.232Z,38.13
2017-11-24T09:08:19.111Z,32.70
2017-11-24T09:10:45.940Z,29.77
2017-11-24T09:13:12.772Z,28.35
2017-11-24T09:15:39.644Z,33.17
2017-11-24T09:18:06.476Z,26.33
2017-11-24T09:20:33.281Z,27.97
2017-11-24T09:23:00.146Z,26.55
2017-11-24T09:25:27.010Z,25.75
2017-11-24T09:27:53.845Z,25.10
2017-11-24T09:30:20.738Z,42.85
2017-11-24T09:32:47.610Z,39.58
2017-11-24T09:35:14.485Z,56.95
2017-11-24T09:37:41.329Z,34.10
2017-11-24T09:40:08.472Z,41.30
2017-11-24T09:42:35.621Z,39.28
2017-11-24T09:45:02.529Z,34.78
2017-11-24T09:47:29.376Z,33.55
2017-11-24T09:49:56.566Z,29.12
2017-11-24T09:52:23.449Z,23.45
2017-11-24T09:54:50.552Z,27.65
2017-11-24T09:57:17.427Z,28.05
2017-11-24T09:59:44.292Z,27.17
2017-11-24T10:02:11.398Z,23.60
2017-11-24T10:04:38.258Z,22.45
2017-11-24T10:07:05.489Z,26.67
2017-11-24T10:09:32.354Z,31.15
2017-11-24T10:11:59.201Z,27.10
2017-11-24T10:14:26.074Z,25.30
2017-11-24T10:16:52.931Z,26.08
2017-11-24T10:19:20.009Z,20.45
2017-11-24T10:21:47.162Z,21.10
2017-11-24T10:24:14.013Z,22.87
2017-11-24T10:26:40.834Z,32.03
2017-11-24T10:29:07.999Z,27.13
2017-11-24T10:31:34.857Z,22.37
2017-11-24T10:34:01.706Z,22.13
2017-11-24T10:36:28.586Z,19.73
2017-11-24T10:38:55.421Z,25.40
2017-11-24T10:41:22.524Z,19.60
2017-11-24T10:43:49.601Z,20.33
2017-11-24T10:46:16.717Z,20.17
2017-11-24T10:48:43.868Z,24.25
2017-11-24T10:51:10.729Z,18.52
2017-11-24T10:53:37.578Z,21.70
2017-11-24T10:56:04.700Z,21.33
2017-11-24T10:58:31.853Z,17.40
2017-11-24T11:00:58.706Z,15.98
2017-11-24T11:03:25.550Z,17.42
2017-11-24T11:05:52.461Z,13.93
2017-11-24T11:08:19.281Z,16.00
2017-11-24T11:10:46.100Z,18.30
2017-11-24T11:13:12.936Z,14.77
2017-11-24T11:15:40.067Z,16.90
2017-11-24T11:18:06.918Z,13.90
2017-11-24T11:20:33.782Z,14.35
2017-11-24T11:23:00.904Z,18.60
2017-11-24T11:25:28.048Z,17.02
2017-11-24T11:27:54.964Z,14.93
2017-11-24T11:30:21.844Z,15.68
2017-11-24T11:32:48.685Z,16.00
2017-11-24T11:35:15.833Z,13.45
2017-11-24T11:37:42.690Z,12.30
2017-11-24T11:40:09.534Z,14.43
2017-11-24T11:42:36.383Z,14.70
2017-11-24T11:45:03.512Z,13.13
2017-11-24T11:47:30.336Z,18.23
2017-11-24T11:49:57.246Z,15.25
2017-11-24T11:52:24.454Z,13.93
2017-11-24T11:54:51.599Z,15.15
2017-11-24T11:57:18.748Z,14.45
2017-11-24T11:59:45.906Z,12.77
2017-11-24T12:02:13.058Z,14.75
2017-11-24T12:04:39.964Z,15.02
2017-11-24T12:07:06.829Z,13.73
2017-11-24T12:09:34.007Z,15.90
2017-11-24T12:12:00.872Z,13.23
2017-11-24T12:14:27.729Z,16.92
2017-11-24T12:16:54.575Z,16.33
2017-11-24T12:19:21.669Z,18.12
2017-11-24T12:21:48.768Z,16.33
2017-11-24T12:24:15.838Z,14.85
2017-11-24T12:26:42.695Z,16.02
2017-11-24T12:29:09.760Z,15.52
2017-11-24T12:31:36.575Z,14.07
2017-11-24T12:34:04.347Z,15.38
2017-11-24T12:36:31.196Z,17.40
2017-11-24T12:38:58.042Z,17.83
2017-11-24T12:41:25.212Z,16.70
2017-11-24T12:43:52.357Z,30.87
2017-11-24T12:46:19.504Z,16.20
2017-11-24T12:48:46.359Z,15.60
2017-11-24T12:51:13.210Z,16.87
2017-11-24T12:53:40.053Z,16.10
2017-11-24T12:56:06.897Z,17.23
2017-11-24T12:58:33.732Z,15.25
2017-11-24T13:01:00.626Z,14.30
2017-11-24T13:03:27.522Z,15.80
2017-11-24T13:05:54.661Z,18.10
2017-11-24T13:08:21.484Z,16.00
2017-11-24T13:10:48.361Z,15.20
2017-11-24T13:13:15.211Z,14.23
2017-11-24T13:15:42.081Z,14.63
2017-11-24T13:18:09.290Z,14.55
2017-11-24T13:20:36.141Z,14.27
2017-11-24T13:23:03.004Z,15.70
2017-11-24T13:25:29.899Z,14.40
2017-11-24T13:27:56.964Z,18.13
2017-11-24T13:30:23.814Z,19.97
2017-11-24T13:32:50.979Z,18.45
2017-11-24T13:35:17.829Z,20.55
2017-11-24T13:37:44.665Z,18.93
2017-11-24T13:40:11.509Z,16.40
2017-11-24T13:42:38.312Z,15.80
2017-11-24T13:45:05.170Z,16.83
2017-11-24T13:47:32.016Z,15.25
2017-11-24T13:49:58.892Z,15.75
2017-11-24T13:52:25.751Z,19.17
2017-11-24T13:54:52.585Z,18.00
2017-11-24T13:57:19.441Z,13.73
2017-11-24T13:59:46.260Z,27.83
2017-11-24T14:02:13.386Z,21.92
2017-11-24T14:04:40.536Z,17.48
2017-11-24T14:07:07.360Z,19.60
2017-11-24T14:09:34.230Z,16.33
2017-11-24T14:12:01.090Z,17.20
2017-11-24T14:14:27.945Z,16.37
2017-11-24T14:16:54.827Z,17.20
2017-11-24T14:19:21.640Z,16.15
2017-11-24T14:21:48.490Z,18.73
2017-11-24T14:24:15.371Z,16.20
2017-11-24T14:26:42.222Z,16.60
2017-11-24T14:29:09.082Z,15.50
2017-11-24T14:31:36.216Z,18.42
2017-11-24T14:34:03.041Z,16.85
2017-11-24T14:36:29.893Z,18.25
2017-11-24T14:38:56.753Z,17.92
2017-11-24T14:41:23.572Z,17.60
2017-11-24T14:43:50.453Z,22.98
2017-11-24T14:46:17.331Z,18.30
2017-11-24T14:48:44.967Z,19.70
2017-11-24T14:51:11.803Z,16.73
2017-11-24T14:53:38.691Z,17.95
2017-11-24T14:56:05.878Z,17.58
2017-11-24T14:58:32.711Z,16.83
2017-11-24T15:00:59.548Z,16.85
2017-11-24T15:03:26.405Z,17.85
2017-11-24T15:05:53.225Z,16.83
2017-11-24T15:08:20.070Z,17.50
2017-11-24T15:10:46.884Z,19.95
2017-11-24T15:13:13.732Z,18.33
2017-11-24T15:15:40.616Z,15.77
2017-11-24T15:18:07.779Z,31.43
2017-11-24T15:20:34.926Z,22.70
2017-11-24T15:23:01.769Z,18.25
2017-11-24T15:25:28.592Z,21.17
2017-11-24T15:27:55.436Z,18.58
2017-11-24T15:30:22.296Z,27.53
2017-11-24T15:32:49.125Z,23.45
2017-11-24T15:35:16.364Z,19.20
2017-11-24T15:37:43.222Z,19.50
2017-11-24T15:40:10.095Z,16.70
2017-11-24T15:42:37.265Z,19.77
2017-11-24T15:45:04.492Z,20.10
2017-11-24T15:47:31.365Z,16.58
2017-11-24T15:49:58.478Z,17.77
2017-11-24T15:52:25.308Z,19.58
2017-11-24T15:54:52.468Z,14.30
2017-11-24T15:57:19.623Z,25.12
2017-11-24T15:59:46.554Z,20.65
2017-11-24T16:02:13.386Z,18.48
2017-11-24T16:04:40.227Z,21.40
2017-11-24T16:07:07.125Z,16.83
2017-11-24T16:09:33.953Z,18.80
2017-11-24T16:12:00.810Z,18.85
2017-11-24T16:14:27.662Z,21.52
2017-11-24T16:16:54.473Z,23.43
2017-11-24T16:19:21.281Z,20.88
2017-11-24T16:21:48.116Z,20.27
2017-11-24T16:24:14.940Z,23.38
2017-11-24T16:26:42.015Z,21.02
2017-11-24T16:29:08.853Z,22.70
2017-11-24T16:31:35.693Z,20.73
2017-11-24T16:34:02.543Z,20.42
2017-11-24T16:36:29.407Z,22.73
2017-11-24T16:38:56.266Z,22.20
2017-11-24T16:41:24.758Z,22.35
2017-11-24T16:43:52.560Z,25.98
2017-11-24T16:46:20.655Z,26.27
2017-11-24T16:48:48.078Z,25.05
2017-11-24T16:51:15.811Z,25.20
2017-11-24T16:53:43.711Z,27.30
2017-11-24T16:56:11.929Z,27.80
2017-11-24T16:58:39.612Z,27.67
2017-11-24T17:01:07.630Z,29.33
2017-11-24T17:03:35.112Z,23.35
2017-11-24T17:06:02.301Z,29.25
2017-11-24T17:08:29.436Z,25.30
2017-11-24T17:10:57.377Z,25.70
2017-11-24T17:13:25.098Z,28.65
2017-11-24T17:15:52.462Z,41.50
2017-11-24T17:18:19.809Z,34.03
2017-11-24T17:20:47.758Z,27.98
2017-11-24T17:23:15.186Z,29.98
2017-11-24T17:25:42.785Z,58.58
2017-11-24T17:28:10.178Z,43.17
2017-11-24T17:30:37.670Z,37.55
2017-11-24T17:33:05.175Z,37.28
2017-11-24T17:35:32.618Z,33.60
2017-11-24T17:37:59.664Z,31.63
2017-11-24T17:40:26.926Z,31.03
2017-11-24T17:42:54.232Z,34.55
2017-11-24T17:45:21.813Z,32.35
2017-11-24T17:47:49.066Z,32.25
2017-11-24T17:50:16.731Z,36.33
2017-11-24T17:52:44.011Z,38.15
2017-11-24T17:55:11.462Z,30.83
2017-11-24T17:57:38.870Z,31.85
2017-11-24T18:00:05.819Z,27.33
2017-11-24T18:02:32.774Z,31.55
2017-11-24T18:04:59.645Z,35.70
2017-11-24T18:07:27.181Z,32.65
2017-11-24T18:09:54.301Z,33.75
2017-11-24T18:12:21.783Z,36.28
2017-11-24T18:14:49.335Z,39.75
2017-11-24T18:17:17.055Z,42.83
2017-11-24T18:19:44.434Z,34.70
2017-11-24T18:22:11.333Z,44.20
2017-11-24T18:24:38.318Z,41.80
2017-11-24T18:27:05.822Z,46.60
2017-11-24T18:29:34.180Z,41.03
2017-11-24T18:32:01.562Z,44.42
2017-11-24T18:34:29.310Z,47.25
2017-11-24T18:36:56.356Z,51.75
2017-11-24T18:39:23.205Z,54.75
2017-11-24T18:41:50.621Z,43.97
2017-11-24T18:44:17.572Z,42.58
2017-11-24T18:46:44.445Z,49.50
2017-11-24T18:49:11.327Z,48.85
2017-11-24T18:51:38.235Z,55.17
2017-11-24T18:54:05.116Z,60.67
2017-11-24T18:56:32.389Z,51.25
2017-11-24T18:58:59.378Z,45.20
2017-11-24T19:01:26.458Z,48.30
2017-11-24T19:03:54.890Z,50.95
2017-11-24T19:06:22.538Z,53.22
2017-11-24T19:08:49.997Z,48.78
2017-11-24T19:11:17.459Z,49.25
2017-11-24T19:13:45.139Z,60.90
2017-11-24T19:16:12.538Z,58.85
2017-11-24T19:18:39.916Z,60.95
2017-11-24T19:21:07.500Z,50.30
2017-11-24T19:23:35.386Z,77.00
2017-11-24T19:26:03.587Z,57.05
2017-11-24T19:28:31.158Z,59.80
2017-11-24T19:30:58.092Z,53.78
2017-11-24T19:33:25.326Z,80.72
2017-11-24T19:35:52.600Z,57.75
2017-11-24T19:38:19.489Z,64.30
2017-11-24T19:40:46.795Z,67.67
2017-11-24T19:43:13.633Z,64.80
2017-11-24T19:45:40.529Z,70.78
2017-11-24T19:48:07.735Z,77.57
2017-11-24T19:50:34.621Z,62.92
2017-11-24T19:53:01.569Z,73.72
2017-11-24T19:55:28.458Z,63.72
2017-11-24T19:57:55.559Z,59.17
2017-11-24T20:00:22.819Z,67.15
2017-11-24T20:02:50.212Z,67.97
2017-11-24T20:05:17.261Z,71.80
2017-11-24T20:07:44.153Z,54.58
2017-11-24T20:10:11.018Z,65.95
2017-11-24T20:12:37.876Z,75.30
2017-11-24T20:15:04.740Z,46.22
2017-11-24T20:17:31.581Z,67.37
2017-11-24T20:19:58.438Z,50.47
2017-11-24T20:22:25.310Z,50.10
2017-11-24T20:24:52.226Z,65.75
2017-11-24T20:27:19.382Z,59.35
2017-11-24T20:29:46.298Z,57.55
2017-11-24T20:32:13.184Z,61.00
2017-11-24T20:34:40.054Z,76.85
2017-11-24T20:37:06.877Z,53.78
2017-11-24T20:39:33.762Z,77.47
2017-11-24T20:42:00.643Z,54.78
2017-11-24T20:44:27.470Z,86.05
2017-11-24T20:46:54.362Z,71.47
2017-11-24T20:49:21.466Z,71.07
2017-11-24T20:51:48.320Z,71.10
2017-11-24T20:54:15.201Z,63.70
2017-11-24T20:56:42.057Z,68.40
2017-11-24T20:59:08.880Z,76.93
2017-11-24T21:01:35.788Z,91.07
2017-11-24T21:04:02.665Z,140.45
2017-11-24T21:06:29.910Z,155.50
2017-11-24T21:08:56.784Z,112.83
2017-11-24T21:11:23.610Z,484.47
2017-11-24T21:13:50.503Z,363.17
2017-11-24T21:16:17.382Z,163.07
2017-11-24T21:18:44.228Z,311.10
2017-11-24T21:21:11.359Z,925.83
2017-11-24T21:23:38.332Z,421.27
2017-11-24T21:26:05.657Z,540.65
2017-11-24T21:28:32.584Z,1038.53
2017-11-24T21:30:59.511Z,316.08
2017-11-24T21:33:26.341Z,284.23
2017-11-24T21:35:53.542Z,497.35
2017-11-24T21:38:20.435Z,561.42
2017-11-24T21:40:47.397Z,350.05
2017-11-24T21:43:14.295Z,428.23
2017-11-24T21:45:41.186Z,189.20
2017-11-24T21:48:08.058Z,431.87
2017-11-24T21:50:35.214Z,257.95
2017-11-24T21:53:02.090Z,201.57
2017-11-24T21:55:28.967Z,240.37
2017-11-24T21:57:55.914Z,195.30
2017-11-24T22:00:23.042Z,262.27
2017-11-24T22:02:49.974Z,443.30
2017-11-24T22:05:17.192Z,199.48
2017-11-24T22:07:44.122Z,209.27
2017-11-24T22:10:10.960Z,167.18
2017-11-24T22:12:37.813Z,187.77
2017-11-24T22:15:04.913Z,366.15
2017-11-24T22:17:31.770Z,299.17
2017-11-24T22:19:58.628Z,279.20
2017-11-24T22:22:25.784Z,283.27
2017-11-24T22:24:52.685Z,253.68
2017-11-24T22:27:19.521Z,139.98
2017-11-24T22:29:46.359Z,203.93
2017-11-24T22:32:13.255Z,144.15
2017-11-24T22:34:40.077Z,276.37
2017-11-24T22:37:06.918Z,369.42
2017-11-24T22:39:33.766Z,227.52
2017-11-24T22:42:01.285Z,274.70
2017-11-24T22:44:28.193Z,283.27
2017-11-24T22:46:55.069Z,216.63
2017-11-24T22:49:21.928Z,280.83
2017-11-24T22:51:48.814Z,410.67
2017-11-24T22:54:15.714Z,251.47
2017-11-24T22:56:42.594Z,186.30
2017-11-24T22:59:09.484Z,623.77
2017-11-24T23:01:36.348Z,177.40
2017-11-24T23:04:03.260Z,447.87
2017-11-24T23:06:30.294Z,309.80
2017-11-24T23:08:57.186Z,253.20
2017-11-24T23:11:24.029Z,141.83
2017-11-24T23:13:50.931Z,112.57
2017-11-24T23:16:17.828Z,621.83
2017-11-24T23:18:44.682Z,195.40
2017-11-24T23:21:11.589Z,246.75
2017-11-24T23:23:38.738Z,428.02
2017-11-24T23:26:05.686Z,324.80
2017-11-24T23:28:32.596Z,421.15
2017-11-24T23:30:59.877Z,199.52
2017-11-24T23:33:26.798Z,390.33
2017-11-24T23:35:53.673Z,302.35
2017-11-24T23:38:20.533Z,300.55
2017-11-24T23:40:47.414Z,368.73
2017-11-24T23:43:14.603Z,345.23
2017-11-24T23:45:41.752Z,410.55
2017-11-24T23:48:08.618Z,233.00
2017-11-24T23:50:35.853Z,251.50
2017-11-24T23:53:03.001Z,197.73
2017-11-24T23:55:29.848Z,879.75
2017-11-24T23:57:56.696Z,289.20
